createdAt,value
2022-09-05T00:01:56.027Z,100.00
2022-09-05T00:04:44.469Z,100.00
2022-09-05T00:07:57.988Z,100.00
2022-09-05T00:10:25.232Z,100.00
2022-09-05T00:13:07.390Z,100.00
2022-09-05T00:15:43.220Z,100.00
2022-09-05T00:24:19.536Z,100.00
2022-09-05T00:24:30.240Z,100.00
2022-09-05T00:24:50.122Z,100.00
2022-09-05T00:27:24.857Z,100.00
2022-09-05T00:31:08.675Z,100.00
2022-09-05T00:33:17.045Z,100.00
2022-09-05T00:36:17.176Z,100.00
2022-09-05T00:38:56.147Z,100.00
2022-09-05T00:41:23.095Z,100.00
2022-09-05T00:43:51.597Z,100.00
2022-09-05T00:46:25.383Z,100.00
2022-09-05T00:49:16.561Z,100.00
2022-09-05T00:52:15.323Z,100.00
2022-09-05T00:55:21.346Z,100.00
2022-09-05T00:58:05.993Z,100.00
2022-09-05T01:00:56.619Z,100.00
2022-09-05T01:03:35.046Z,100.00
2022-09-05T01:06:26.098Z,100.00
2022-09-05T01:09:08.004Z,100.00
2022-09-05T01:11:42.999Z,100.00
2022-09-05T01:14:37.439Z,100.00
2022-09-05T01:17:22.835Z,100.00
2022-09-05T01:20:31.437Z,100.00
2022-09-05T01:23:23.345Z,100.00
2022-09-05T01:26:11.900Z,100.00
2022-09-05T01:29:16.023Z,100.00
2022-09-05T01:32:06.161Z,100.00
2022-09-05T01:34:55.039Z,100.00
2022-09-05T01:37:47.797Z,100.00
2022-09-05T01:40:23.786Z,100.00
2022-09-05T01:43:20.902Z,100.00
2022-09-05T01:45:50.626Z,100.00
2022-09-05T01:48:57.936Z,100.00
2022-09-05T01:51:40.011Z,100.00
2022-09-05T01:54:39.661Z,100.00
2022-09-05T01:57:18.267Z,100.00
2022-09-05T01:59:55.461Z,100.00
2022-09-05T02:02:37.363Z,100.00
2022-09-05T02:05:06.995Z,100.00
2022-09-05T02:07:52.232Z,100.00
2022-09-05T02:10:31.130Z,100.00
2022-09-05T02:13:22.415Z,100.00
2022-09-05T02:16:19.897Z,100.00
2022-09-05T02:19:04.857Z,100.00
2022-09-05T02:21:55.347Z,100.00
2022-09-05T02:24:31.110Z,100.00
2022-09-05T02:27:40.261Z,100.00
2022-09-05T02:30:16.896Z,100.00
2022-09-05T02:33:02.599Z,100.00
2022-09-05T02:35:55.001Z,100.00
2022-09-05T02:42:00.180Z,100.00
2022-09-05T02:45:09.514Z,100.00
2022-09-05T02:45:13.411Z,100.00
2022-09-05T02:48:15.585Z,100.00
2022-09-05T02:55:12.852Z,100.00
2022-09-05T02:57:37.624Z,100.00
2022-09-05T02:57:45.795Z,100.00
2022-09-05T02:59:36.142Z,100.00
2022-09-05T03:02:25.450Z,100.00
2022-09-05T03:05:35.716Z,100.00
2022-09-05T03:08:17.067Z,100.00
2022-09-05T03:10:54.214Z,100.00
2022-09-05T03:13:27.410Z,100.00
2022-09-05T03:16:39.186Z,100.00
2022-09-05T03:19:52.739Z,100.00
2022-09-05T03:22:50.026Z,100.00
2022-09-05T03:25:42.846Z,100.00
2022-09-05T03:28:26.493Z,100.00
2022-09-05T03:31:26.670Z,100.00
2022-09-05T03:34:12.352Z,100.00
2022-09-05T03:37:16.500Z,100.00
2022-09-05T03:40:15.273Z,100.00
2022-09-05T03:42:53.495Z,100.00
2022-09-05T03:45:44.208Z,100.00
2022-09-05T03:48:29.313Z,100.00
2022-09-05T03:55:42.733Z,100.00
2022-09-05T03:57:16.515Z,100.00
2022-09-05T03:57:46.333Z,100.00
2022-09-05T04:00:22.919Z,100.00
2022-09-05T04:08:09.141Z,100.00
2022-09-05T04:08:20.632Z,100.00
2022-09-05T04:08:48.057Z,100.00
2022-09-05T04:11:27.969Z,100.00
2022-09-05T04:14:02.698Z,100.00
2022-09-05T04:16:47.987Z,100.00
2022-09-05T04:19:17.451Z,100.00
2022-09-05T04:21:56.159Z,100.00
2022-09-05T04:24:30.103Z,100.00
2022-09-05T04:27:02.427Z,100.00
2022-09-05T04:29:58.495Z,100.00
2022-09-05T04:32:36.786Z,100.00
2022-09-05T04:35:03.261Z,100.00
2022-09-05T04:37:48.879Z,100.00
2022-09-05T04:40:35.673Z,100.00
2022-09-05T04:43:19.463Z,100.00
2022-09-05T04:46:20.701Z,100.00
2022-09-05T04:49:15.664Z,100.00
2022-09-05T04:52:16.785Z,100.00
2022-09-05T04:55:07.207Z,100.00
2022-09-05T04:57:36.615Z,100.00
2022-09-05T05:02:47.951Z,100.00
2022-09-05T05:06:02.511Z,100.00
2022-09-05T05:06:11.539Z,100.00
2022-09-05T05:08:46.717Z,100.00
2022-09-05T05:17:54.028Z,100.00
2022-09-05T05:18:01.746Z,100.00
2022-09-05T05:18:09.412Z,100.00
2022-09-05T05:20:41.632Z,100.00
2022-09-05T05:23:07.364Z,100.00
2022-09-05T05:25:46.364Z,100.00
2022-09-05T05:28:24.664Z,100.00
2022-09-05T05:30:54.021Z,100.00
2022-09-05T05:33:34.298Z,100.00
2022-09-05T05:36:03.574Z,100.00
2022-09-05T05:38:51.648Z,100.00
2022-09-05T05:41:46.482Z,100.00
2022-09-05T05:44:19.433Z,100.00
2022-09-05T05:47:16.631Z,100.00
2022-09-05T05:50:01.267Z,100.00
2022-09-05T05:52:40.833Z,100.00
2022-09-05T05:55:50.682Z,100.00
2022-09-05T05:58:24.660Z,100.00
2022-09-05T06:01:37.210Z,100.00
2022-09-05T06:04:28.039Z,100.00
2022-09-05T06:07:22.189Z,100.00
2022-09-05T06:14:53.197Z,100.00
2022-09-05T06:14:56.531Z,100.00
2022-09-05T06:16:12.699Z,100.00
2022-09-05T06:19:49.761Z,100.00
2022-09-05T06:22:49.583Z,100.00
2022-09-05T06:25:40.936Z,100.00
2022-09-05T06:28:25.935Z,100.00
2022-09-05T06:31:30.342Z,100.00
2022-09-05T06:34:04.378Z,100.00
2022-09-05T06:37:01.844Z,100.00
2022-09-05T06:40:06.138Z,100.00
2022-09-05T06:42:42.445Z,100.00
2022-09-05T06:45:27.163Z,100.00
2022-09-05T06:48:04.934Z,100.00
2022-09-05T06:51:08.165Z,100.00
2022-09-05T06:53:53.476Z,100.00
2022-09-05T06:56:31.952Z,100.00
2022-09-05T06:59:26.107Z,100.00
2022-09-05T07:02:08.484Z,100.00
2022-09-05T07:05:37.154Z,100.00
2022-09-05T07:08:15.785Z,100.00
2022-09-05T07:11:04.391Z,100.00
2022-09-05T07:13:48.320Z,100.00
2022-09-05T07:16:51.196Z,100.00
2022-09-05T07:19:44.502Z,100.00
2022-09-05T07:22:46.021Z,100.00
2022-09-05T07:25:08.858Z,100.00
2022-09-05T07:27:44.437Z,100.00
2022-09-05T07:30:25.158Z,100.00
2022-09-05T07:32:54.927Z,100.00
2022-09-05T07:35:29.270Z,99.41
2022-09-05T07:38:15.038Z,97.83
2022-09-05T07:40:50.506Z,96.15
2022-09-05T07:43:23.370Z,94.54
2022-09-05T07:46:05.012Z,93.31
2022-09-05T07:48:43.367Z,91.78
2022-09-05T07:56:47.985Z,91.58
2022-09-05T07:57:00.084Z,87.96
2022-09-05T07:57:31.263Z,88.40
2022-09-05T08:00:26.695Z,86.94
2022-09-05T08:02:59.246Z,85.21
2022-09-05T08:05:35.786Z,84.40
2022-09-05T08:08:14.462Z,82.88
2022-09-05T08:11:24.066Z,83.29
2022-09-05T08:13:46.413Z,83.48
2022-09-05T08:16:20.600Z,83.02
2022-09-05T08:18:54.151Z,81.19
2022-09-05T08:21:33.255Z,80.50
2022-09-05T08:24:05.528Z,78.75
2022-09-05T08:26:50.184Z,76.46
2022-09-05T08:29:40.573Z,74.79
2022-09-05T08:32:23.040Z,75.18
2022-09-05T08:34:52.487Z,76.02
2022-09-05T08:37:25.753Z,74.00
2022-09-05T08:40:10.893Z,73.53
2022-09-05T08:46:36.862Z,71.86
2022-09-05T08:46:42.699Z,70.81
2022-09-05T08:49:32.417Z,68.64
2022-09-05T08:52:26.448Z,66.18
2022-09-05T08:55:07.591Z,67.61
2022-09-05T08:57:46.529Z,66.23
2022-09-05T09:00:24.864Z,66.42
2022-09-05T09:03:18.434Z,58.40
2022-09-05T09:06:12.723Z,62.49
2022-09-05T09:09:05.796Z,61.19
2022-09-05T09:11:42.275Z,59.03
2022-09-05T09:14:14.902Z,57.30
2022-09-05T09:17:19.083Z,56.93
2022-09-05T09:20:00.527Z,56.74
2022-09-05T09:22:41.800Z,54.14
2022-09-05T09:25:18.467Z,51.11
2022-09-05T09:28:48.431Z,50.84
2022-09-05T09:30:58.275Z,50.07
2022-09-05T09:33:53.870Z,48.43
2022-09-05T09:36:37.972Z,46.47
2022-09-05T09:39:19.056Z,49.37
2022-09-05T09:42:05.000Z,47.97
2022-09-05T09:45:28.839Z,44.03
2022-09-05T09:48:10.115Z,45.00
2022-09-05T09:51:01.772Z,43.28
2022-09-05T09:53:46.873Z,44.58
2022-09-05T09:56:31.179Z,43.19
2022-09-05T09:59:15.911Z,41.64
2022-09-05T10:04:31.095Z,40.41
2022-09-05T10:10:35.651Z,40.57
2022-09-05T10:10:54.671Z,38.33
2022-09-05T10:14:52.595Z,37.12
2022-09-05T10:17:56.752Z,36.35
2022-09-05T10:20:38.079Z,38.28
2022-09-05T10:23:13.548Z,38.86
2022-09-05T10:26:31.590Z,37.54
2022-09-05T10:29:36.891Z,38.18
2022-09-05T10:34:42.481Z,38.09
2022-09-05T10:35:15.329Z,35.59
2022-09-05T10:37:51.133Z,35.80
2022-09-05T10:40:22.903Z,34.77
2022-09-05T10:42:59.803Z,36.22
2022-09-05T10:45:38.244Z,35.82
2022-09-05T10:48:33.913Z,34.88
2022-09-05T10:51:29.739Z,34.03
2022-09-05T10:54:18.219Z,34.02
2022-09-05T10:56:52.515Z,33.87
2022-09-05T11:02:15.589Z,33.74
2022-09-05T11:02:33.671Z,33.46
2022-09-05T11:05:30.772Z,32.50
2022-09-05T11:08:06.870Z,32.99
2022-09-05T11:10:45.584Z,32.48
2022-09-05T11:13:30.876Z,32.36
2022-09-05T11:16:08.267Z,30.93
2022-09-05T11:18:55.263Z,31.64
2022-09-05T11:21:26.011Z,33.10
2022-09-05T11:24:00.716Z,32.56
2022-09-05T11:26:42.253Z,32.11
2022-09-05T11:29:12.684Z,32.35
2022-09-05T11:33:58.843Z,31.90
2022-09-05T11:40:04.427Z,32.71
2022-09-05T11:40:10.678Z,30.54
2022-09-05T11:41:10.039Z,30.40
2022-09-05T11:43:47.221Z,31.10
2022-09-05T11:46:13.657Z,31.27
2022-09-05T11:49:01.787Z,30.73
2022-09-05T11:51:59.295Z,31.12
2022-09-05T11:54:56.468Z,30.98
2022-09-05T11:58:29.643Z,30.37
2022-09-05T12:01:42.067Z,30.36
2022-09-05T12:04:14.206Z,29.89
2022-09-05T12:07:32.151Z,30.10
2022-09-05T12:10:46.074Z,30.38
2022-09-05T12:13:17.078Z,30.31
2022-09-05T12:16:00.599Z,30.03
2022-09-05T12:18:42.936Z,29.60
2022-09-05T12:21:28.219Z,28.45
2022-09-05T12:25:26.560Z,27.70
2022-09-05T12:27:38.396Z,27.49
2022-09-05T12:30:04.477Z,27.34
2022-09-05T12:33:52.359Z,26.45
2022-09-05T12:40:44.799Z,24.99
2022-09-05T12:40:59.510Z,26.01
2022-09-05T12:42:13.904Z,25.71
2022-09-05T12:44:48.195Z,26.40
2022-09-05T12:47:21.117Z,24.88
2022-09-05T12:50:02.381Z,25.49
2022-09-05T12:52:33.756Z,25.27
2022-09-05T12:55:10.945Z,24.62
2022-09-05T13:01:20.377Z,24.02
2022-09-05T13:03:12.329Z,24.25
2022-09-05T13:03:31.667Z,24.70
2022-09-05T13:06:11.616Z,23.54
2022-09-05T13:08:59.391Z,23.65
2022-09-05T13:14:50.555Z,23.51
2022-09-05T13:14:55.027Z,22.43
2022-09-05T13:17:13.831Z,23.01
2022-09-05T13:19:47.389Z,22.57
2022-09-05T13:22:16.429Z,23.17
2022-09-05T13:24:49.741Z,22.55
2022-09-05T13:27:24.011Z,22.50
2022-09-05T13:31:53.470Z,21.60
2022-09-05T13:37:59.037Z,20.91
2022-09-05T13:38:19.333Z,21.09
2022-09-05T13:39:07.774Z,21.47
2022-09-05T13:41:49.551Z,21.07
2022-09-05T13:44:26.783Z,21.60
2022-09-05T13:47:29.483Z,21.35
2022-09-05T13:49:56.900Z,22.92
2022-09-05T13:52:40.513Z,23.79
2022-09-05T13:55:15.848Z,24.49
2022-09-05T13:57:55.491Z,24.56
2022-09-05T14:00:40.197Z,24.50
2022-09-05T14:06:07.256Z,24.08
2022-09-05T14:09:35.126Z,24.11
2022-09-05T14:12:01.526Z,23.55
2022-09-05T14:17:58.754Z,22.96
2022-09-05T14:20:50.158Z,22.48
2022-09-05T14:23:19.008Z,22.16
2022-09-05T14:25:54.253Z,21.38
2022-09-05T14:28:33.892Z,21.75
2022-09-05T14:36:23.552Z,22.01
2022-09-05T14:37:42.764Z,22.41
2022-09-05T14:37:49.196Z,22.54
2022-09-05T14:40:29.903Z,21.91
2022-09-05T14:43:13.978Z,21.93
2022-09-05T14:46:14.198Z,22.22
2022-09-05T14:48:59.674Z,22.39
2022-09-05T14:51:34.983Z,22.73
2022-09-05T15:02:33.986Z,22.80
2022-09-05T15:02:48.794Z,22.01
2022-09-05T15:03:03.656Z,22.10
2022-09-05T15:05:31.655Z,22.24
2022-09-05T15:08:14.889Z,22.86
2022-09-05T15:12:17.200Z,23.02
2022-09-05T15:14:07.672Z,23.16
2022-09-05T15:16:40.180Z,23.64
2022-09-05T15:19:10.093Z,23.38
2022-09-05T15:21:41.038Z,23.32
2022-09-05T15:24:14.311Z,23.92
2022-09-05T15:26:54.563Z,24.02
2022-09-05T15:29:26.895Z,24.47
2022-09-05T15:32:11.825Z,24.53
2022-09-05T15:34:39.198Z,24.86
2022-09-05T15:37:40.768Z,25.52
2022-09-05T15:40:22.415Z,25.54
2022-09-05T15:42:56.942Z,25.49
2022-09-05T15:45:29.000Z,25.35
2022-09-05T15:48:17.387Z,26.22
2022-09-05T15:50:51.252Z,25.95
2022-09-05T15:53:26.017Z,25.79
2022-09-05T15:55:59.839Z,26.52
2022-09-05T15:58:27.247Z,26.44
2022-09-05T16:01:15.657Z,26.61
2022-09-05T16:08:49.384Z,26.54
2022-09-05T16:10:33.926Z,26.47
2022-09-05T16:10:50.570Z,26.26
2022-09-05T16:12:43.885Z,26.76
2022-09-05T16:19:23.448Z,26.92
2022-09-05T16:23:20.947Z,26.91
2022-09-05T16:23:27.780Z,27.04
2022-09-05T16:24:13.792Z,26.56
2022-09-05T16:26:45.762Z,26.55
2022-09-05T16:29:26.536Z,26.64
2022-09-05T16:31:59.436Z,26.78
2022-09-05T16:34:28.827Z,27.37
2022-09-05T16:37:07.870Z,26.93
2022-09-05T16:39:39.726Z,27.18
2022-09-05T16:42:46.692Z,27.16
2022-09-05T16:45:14.268Z,27.71
2022-09-05T16:48:14.102Z,28.21
2022-09-05T16:50:53.452Z,28.75
2022-09-05T16:53:32.288Z,28.47
2022-09-05T16:56:09.921Z,29.24
2022-09-05T16:58:56.293Z,29.63
2022-09-05T17:01:34.820Z,29.80
2022-09-05T17:05:04.792Z,30.94
2022-09-05T17:07:57.990Z,31.55
2022-09-05T17:10:28.359Z,31.42
2022-09-05T17:12:56.006Z,32.35
2022-09-05T17:15:31.769Z,32.90
2022-09-05T17:18:21.581Z,32.80
2022-09-05T17:20:49.461Z,33.47
2022-09-05T17:28:07.253Z,33.51
2022-09-05T17:29:25.251Z,33.95
2022-09-05T17:29:44.142Z,34.19
2022-09-05T17:31:56.412Z,34.31
2022-09-05T17:34:34.659Z,34.69
2022-09-05T17:37:19.534Z,35.57
2022-09-05T17:40:23.558Z,36.21
2022-09-05T17:43:05.037Z,36.67
2022-09-05T17:46:10.385Z,36.50
2022-09-05T17:49:18.498Z,36.91
2022-09-05T17:51:35.699Z,37.20
2022-09-05T17:54:07.810Z,37.33
2022-09-05T17:56:40.447Z,38.40
2022-09-05T17:59:13.413Z,38.86
2022-09-05T18:01:44.154Z,38.31
2022-09-05T18:04:17.750Z,38.67
2022-09-05T18:06:59.474Z,39.40
2022-09-05T18:15:27.507Z,40.15
2022-09-05T18:17:54.047Z,40.61
2022-09-05T18:20:23.451Z,40.94
2022-09-05T18:26:11.279Z,41.27
2022-09-05T18:28:50.196Z,41.82
2022-09-05T18:31:40.691Z,41.49
2022-09-05T18:34:14.761Z,41.63
2022-09-05T18:36:48.849Z,42.64
2022-09-05T18:39:27.630Z,44.24
2022-09-05T18:42:09.170Z,44.07
2022-09-05T18:44:56.266Z,43.37
2022-09-05T18:47:50.937Z,44.33
2022-09-05T18:50:27.816Z,44.49
2022-09-05T18:53:09.072Z,45.20
2022-09-05T18:56:10.320Z,44.31
2022-09-05T18:58:31.480Z,45.01
2022-09-05T19:01:28.573Z,45.32
2022-09-05T19:03:59.799Z,44.76
2022-09-05T19:06:36.692Z,45.57
2022-09-05T19:09:15.014Z,46.61
2022-09-05T19:11:53.378Z,46.50
2022-09-05T19:14:34.098Z,47.83
2022-09-05T19:17:09.252Z,48.72
2022-09-05T19:20:17.936Z,49.22
2022-09-05T19:23:11.002Z,48.36
2022-09-05T19:25:41.558Z,49.22
2022-09-05T19:36:51.630Z,48.63
2022-09-05T19:36:53.598Z,47.92
2022-09-05T19:37:08.705Z,48.38
2022-09-05T19:37:39.646Z,48.58
2022-09-05T19:46:21.133Z,49.85
2022-09-05T19:47:30.548Z,49.98
2022-09-05T19:47:39.302Z,51.05
2022-09-05T19:48:26.715Z,50.76
2022-09-05T19:51:17.221Z,52.04
2022-09-05T19:54:01.279Z,50.47
2022-09-05T19:56:45.933Z,52.52
2022-09-05T19:59:27.402Z,52.29
2022-09-05T20:02:02.840Z,52.89
2022-09-05T20:04:35.734Z,53.91
2022-09-05T20:07:16.423Z,54.77
2022-09-05T20:09:46.943Z,54.83
2022-09-05T20:12:24.221Z,54.42
2022-09-05T20:14:51.332Z,54.66
2022-09-05T20:17:31.064Z,54.04
2022-09-05T20:20:12.888Z,54.29
2022-09-05T20:22:50.440Z,53.52
2022-09-05T20:25:35.990Z,55.09
2022-09-05T20:28:10.362Z,54.48
2022-09-05T20:30:44.126Z,55.35
2022-09-05T20:33:42.869Z,56.84
2022-09-05T20:43:09.906Z,55.49
2022-09-05T20:43:17.265Z,57.62
2022-09-05T20:43:32.443Z,56.11
2022-09-05T20:44:51.195Z,58.79
2022-09-05T20:54:05.885Z,59.47
2022-09-05T20:54:13.741Z,58.99
2022-09-05T20:54:26.661Z,59.32
2022-09-05T20:56:10.751Z,57.98
2022-09-05T20:58:38.971Z,58.46
2022-09-05T21:01:21.718Z,58.42
2022-09-05T21:04:02.381Z,58.94
2022-09-05T21:06:34.863Z,59.29
2022-09-05T21:09:29.416Z,61.90
2022-09-05T21:12:00.126Z,61.69
2022-09-05T21:14:28.572Z,62.64
2022-09-05T21:17:15.073Z,62.76
2022-09-05T21:19:46.604Z,60.71
2022-09-05T21:22:20.292Z,62.44
2022-09-05T21:24:47.305Z,62.98
2022-09-05T21:27:24.103Z,61.67
2022-09-05T21:29:59.012Z,62.89
2022-09-05T21:32:41.365Z,64.31
2022-09-05T21:35:35.043Z,63.50
2022-09-05T21:37:56.955Z,64.46
2022-09-05T21:40:23.602Z,63.94
2022-09-05T21:46:36.677Z,63.84
2022-09-05T21:47:38.479Z,64.78
2022-09-05T21:48:24.318Z,65.93
2022-09-05T21:50:51.067Z,65.95
2022-09-05T21:59:13.312Z,68.27
2022-09-05T21:59:29.710Z,65.45
2022-09-05T21:59:36.926Z,65.16
2022-09-05T22:02:08.291Z,66.07
2022-09-05T22:04:40.926Z,65.34
2022-09-05T22:07:08.063Z,65.79
2022-09-05T22:09:34.555Z,67.66
2022-09-05T22:12:03.892Z,65.88
2022-09-05T22:14:47.774Z,66.51
2022-09-05T22:17:14.377Z,66.50
2022-09-05T22:19:41.212Z,67.25
2022-09-05T22:22:16.969Z,67.27
2022-09-05T22:24:59.201Z,68.68
2022-09-05T22:27:28.722Z,67.67
2022-09-05T22:29:57.258Z,69.72
2022-09-05T22:32:35.273Z,69.73
2022-09-05T22:35:27.198Z,70.50
2022-09-05T22:38:00.251Z,71.15
2022-09-05T22:40:28.884Z,70.14
2022-09-05T22:42:57.192Z,71.48
2022-09-05T22:45:24.665Z,69.86
2022-09-05T22:47:51.108Z,71.19
2022-09-05T22:52:44.396Z,71.38
2022-09-05T22:55:11.390Z,69.51
2022-09-05T22:57:38.956Z,71.85
2022-09-05T23:00:06.843Z,71.40
2022-09-05T23:02:35.086Z,71.18
2022-09-05T23:05:02.956Z,72.47
2022-09-05T23:07:29.611Z,73.26
2022-09-05T23:09:56.107Z,72.15
2022-09-05T23:12:22.564Z,72.26
2022-09-05T23:14:49.038Z,72.17
2022-09-05T23:17:15.588Z,73.24
2022-09-05T23:19:42.161Z,73.49
2022-09-05T23:22:08.691Z,71.97
2022-09-05T23:24:35.221Z,72.48
2022-09-05T23:27:01.723Z,71.49
2022-09-05T23:29:28.251Z,72.01
2022-09-05T23:31:54.773Z,71.85
2022-09-05T23:34:21.523Z,72.65
2022-09-05T23:36:48.024Z,72.98
2022-09-05T23:39:14.491Z,73.74
2022-09-05T23:41:41.002Z,72.52
2022-09-05T23:44:07.443Z,72.62
2022-09-05T23:46:34.030Z,73.18
2022-09-05T23:49:00.510Z,73.81
2022-09-05T23:51:27.067Z,74.06
2022-09-05T23:53:53.558Z,74.17
2022-09-05T23:56:20.295Z,74.66
2022-09-05T23:58:46.969Z,75.30
